Time;durP1;ratioP1;P1;durP2;ratioP2;P2;SDS_P1;SDS_P2;PMS_P1;PMS_P2;Temp;Humidity;BMP_temperature;BMP_pressure;BME280_temperature;BME280_humidity;BME280_pressure;Samples;Min_cycle;Max_cycle;Signal;HPM_P1;HPM_P2
2022/01/16 00:00:51;;;;;;;163.75;60.13;;;5.90;99.90;;;;;;5107474;28;20448;-75
2022/01/16 00:06:01;;;;;;;156.05;59.78;;;5.90;99.90;;;;;;5106849;28;20413;-75
2022/01/16 00:08:26;;;;;;;155.23;59.40;;;5.90;99.90;;;;;;5118727;27;20424;-75
2022/01/16 00:10:52;;;;;;;163.65;60.30;;;5.90;99.90;;;;;;5108487;27;20408;-75
2022/01/16 00:13:18;;;;;;;157.30;59.60;;;5.90;99.90;;;;;;5111689;28;20513;-74
2022/01/16 00:15:44;;;;;;;157.38;57.90;;;5.90;99.90;;;;;;5113532;27;20515;-75
2022/01/16 00:18:21;;;;;;;157.52;59.40;;;5.90;99.90;;;;;;5113866;27;20415;-75
2022/01/16 00:20:48;;;;;;;151.27;58.72;;;5.90;99.90;;;;;;5109098;28;20881;-75
2022/01/16 00:23:22;;;;;;;153.30;58.58;;;6.00;99.90;;;;;;5111104;28;20896;-74
2022/01/16 00:25:49;;;;;;;153.93;58.22;;;6.00;99.90;;;;;;5114653;27;20402;-75
2022/01/16 00:28:15;;;;;;;152.73;59.70;;;6.00;99.90;;;;;;5108946;27;20756;-74
2022/01/16 00:30:40;;;;;;;157.98;59.83;;;6.00;99.90;;;;;;5105145;28;20425;-74
2022/01/16 00:33:06;;;;;;;155.50;59.17;;;6.00;99.90;;;;;;5110495;28;20392;-74
2022/01/16 00:35:31;;;;;;;156.18;59.67;;;6.00;99.90;;;;;;5092776;28;20441;-75
2022/01/16 00:37:57;;;;;;;155.20;58.73;;;6.00;99.90;;;;;;5105998;28;20456;-74
2022/01/16 00:40:23;;;;;;;152.40;58.55;;;6.00;99.90;;;;;;5110984;28;20396;-74
2022/01/16 00:42:49;;;;;;;166.10;61.50;;;6.00;99.90;;;;;;5108220;28;20427;-75
2022/01/16 00:45:15;;;;;;;157.90;60.73;;;6.00;99.90;;;;;;5110746;28;20483;-74
2022/01/16 00:47:40;;;;;;;162.57;60.38;;;6.00;99.90;;;;;;5091746;28;20412;-74
2022/01/16 00:50:07;;;;;;;156.20;58.80;;;6.00;99.90;;;;;;5109884;28;20424;-75
2022/01/16 00:52:32;;;;;;;163.45;61.33;;;6.00;99.90;;;;;;5108850;28;20418;-74
2022/01/16 00:55:03;;;;;;;159.27;61.73;;;6.10;99.90;;;;;;5114075;27;20491;-75
2022/01/16 00:57:29;;;;;;;170.82;63.40;;;6.00;99.90;;;;;;5106073;27;20409;-75
2022/01/16 00:59:55;;;;;;;161.43;61.05;;;6.00;99.90;;;;;;5110678;28;20410;-75
2022/01/16 01:02:21;;;;;;;169.47;61.23;;;6.00;99.90;;;;;;5106333;28;20411;-74
2022/01/16 01:04:47;;;;;;;167.27;62.35;;;6.00;99.90;;;;;;5108485;27;20404;-75
2022/01/16 01:07:13;;;;;;;172.07;61.95;;;6.00;99.90;;;;;;5107964;28;20749;-75
2022/01/16 01:09:39;;;;;;;168.32;63.58;;;6.00;99.90;;;;;;5091831;28;20484;-75
2022/01/16 01:12:06;;;;;;;168.90;62.72;;;6.00;99.90;;;;;;5113172;27;20416;-75
2022/01/16 01:15:03;;;;;;;170.65;62.75;;;6.00;99.90;;;;;;5109876;28;20407;-75
2022/01/16 01:17:34;;;;;;;171.93;63.37;;;6.00;99.90;;;;;;5105550;27;20427;-75
2022/01/16 01:19:59;;;;;;;161.50;62.05;;;6.00;99.90;;;;;;5125343;27;21224;-75
2022/01/16 01:22:25;;;;;;;169.45;62.58;;;6.00;99.90;;;;;;5108608;28;20496;-75
2022/01/16 01:24:50;;;;;;;173.17;63.10;;;6.00;99.90;;;;;;5108505;28;20408;-75
2022/01/16 01:27:26;;;;;;;169.07;62.83;;;6.00;99.90;;;;;;5111859;27;20425;-75
2022/01/16 01:30:06;;;;;;;170.25;62.58;;;6.00;99.90;;;;;;5109696;27;20408;-73
2022/01/16 01:32:33;;;;;;;172.57;64.88;;;5.90;99.90;;;;;;5107489;28;20464;-74
2022/01/16 01:35:00;;;;;;;179.05;64.35;;;6.00;99.90;;;;;;5107863;28;20833;-74
2022/01/16 01:37:26;;;;;;;174.23;64.20;;;6.00;99.90;;;;;;5110303;27;20404;-75
2022/01/16 01:39:52;;;;;;;174.48;64.45;;;6.00;99.90;;;;;;5107757;28;20415;-75
2022/01/16 01:42:18;;;;;;;172.82;63.65;;;5.90;99.90;;;;;;5110749;27;20416;-74
2022/01/16 01:52:58;;;;;;;172.68;64.60;;;6.00;99.90;;;;;;5104975;28;20404;-75
2022/01/16 01:55:25;;;;;;;167.20;65.00;;;6.00;99.90;;;;;;5106592;27;20436;-75
2022/01/16 01:57:51;;;;;;;167.10;63.50;;;6.10;99.90;;;;;;5105423;28;20396;-75
2022/01/16 02:00:18;;;;;;;160.25;62.90;;;6.10;99.90;;;;;;5109703;27;20404;-75
2022/01/16 02:05:30;;;;;;;159.65;62.47;;;6.20;99.90;;;;;;5107607;28;20447;-74
2022/01/16 02:07:57;;;;;;;161.68;62.80;;;6.20;99.90;;;;;;5105046;28;20400;-75
2022/01/16 02:10:23;;;;;;;154.15;62.30;;;6.30;99.90;;;;;;5113827;27;20451;-74
2022/01/16 02:12:55;;;;;;;159.75;63.03;;;6.30;99.90;;;;;;5105975;27;20396;-75
2022/01/16 02:34:40;;;;;;;133.95;57.72;;;6.60;99.90;;;;;;5108283;28;20388;-75
2022/01/16 02:37:10;;;;;;;111.45;52.95;;;6.70;99.90;;;;;;5106813;28;20487;-74
2022/01/16 02:39:40;;;;;;;92.63;47.65;;;6.70;99.90;;;;;;5108150;28;20814;-74
2022/01/16 02:42:08;;;;;;;83.20;43.90;;;6.70;99.90;;;;;;5106413;28;20436;-74
2022/01/16 02:44:42;;;;;;;72.13;40.28;;;6.80;99.90;;;;;;5105704;28;20424;-73
2022/01/16 02:47:17;;;;;;;62.50;36.97;;;6.80;99.90;;;;;;5106137;28;20428;-74
2022/01/16 02:49:44;;;;;;;60.97;35.17;;;6.90;99.90;;;;;;5107027;28;20924;-73
2022/01/16 02:52:18;;;;;;;62.63;36.63;;;6.90;99.90;;;;;;5112378;28;20412;-74
2022/01/16 02:54:46;;;;;;;51.92;31.88;;;7.00;99.90;;;;;;5114368;28;20851;-73
2022/01/16 02:57:16;;;;;;;46.35;29.02;;;7.00;99.90;;;;;;5111795;27;20404;-74
2022/01/16 02:59:53;;;;;;;47.00;28.60;;;7.00;99.90;;;;;;5106219;28;20435;-73
2022/01/16 03:02:20;;;;;;;48.95;28.73;;;7.10;99.90;;;;;;5104973;28;20443;-73
2022/01/16 03:04:46;;;;;;;43.17;26.88;;;7.10;99.90;;;;;;5120404;28;20440;-75
2022/01/16 03:07:12;;;;;;;41.67;24.95;;;7.10;99.90;;;;;;5113492;28;20487;-74
2022/01/16 03:12:12;;;;;;;41.25;23.42;;;7.20;99.90;;;;;;5112266;28;20451;-75
2022/01/16 03:14:38;;;;;;;39.90;22.70;;;7.20;99.90;;;;;;5108305;28;20726;-74
2022/01/16 03:17:04;;;;;;;37.23;22.70;;;7.30;99.90;;;;;;5106061;28;20433;-74
2022/01/16 03:22:14;;;;;;;35.47;22.35;;;7.30;99.90;;;;;;5114924;27;20415;-74
2022/01/16 03:24:42;;;;;;;36.80;22.05;;;7.30;99.90;;;;;;5111743;28;20400;-74
2022/01/16 03:27:13;;;;;;;41.70;22.77;;;7.40;99.90;;;;;;5111973;27;21066;-74
2022/01/16 03:29:41;;;;;;;33.83;19.92;;;7.40;99.90;;;;;;5115683;27;20408;-74
2022/01/16 03:32:10;;;;;;;32.88;20.08;;;7.40;99.90;;;;;;5110009;28;20423;-74
2022/01/16 03:34:36;;;;;;;35.60;20.15;;;7.50;99.90;;;;;;5112103;28;20832;-74
2022/01/16 03:37:02;;;;;;;36.70;20.13;;;7.50;99.90;;;;;;5109729;28;20487;-74
2022/01/16 03:39:28;;;;;;;32.13;18.73;;;7.50;99.90;;;;;;5112227;28;20411;-74
2022/01/16 03:41:55;;;;;;;31.23;18.02;;;7.50;99.90;;;;;;5110081;28;20408;-74
2022/01/16 03:44:21;;;;;;;30.35;17.20;;;7.50;99.90;;;;;;5120377;27;20911;-74
2022/01/16 03:46:47;;;;;;;30.65;17.92;;;7.60;99.90;;;;;;5108652;28;20507;-74
2022/01/16 03:49:19;;;;;;;31.80;17.27;;;7.60;99.90;;;;;;5121990;27;21169;-74
2022/01/16 03:51:46;;;;;;;34.30;16.42;;;7.60;99.90;;;;;;5112830;27;20408;-74
2022/01/16 03:54:16;;;;;;;33.87;16.57;;;7.70;99.90;;;;;;5107828;28;20415;-74
2022/01/16 03:56:42;;;;;;;26.83;14.40;;;7.70;99.90;;;;;;5109122;28;20658;-74
2022/01/16 03:59:08;;;;;;;29.67;15.60;;;7.70;99.90;;;;;;5110523;27;20453;-74
2022/01/16 04:01:34;;;;;;;27.67;15.27;;;7.70;99.90;;;;;;5108495;28;21329;-73
2022/01/16 04:04:01;;;;;;;36.75;16.33;;;7.70;99.90;;;;;;5110439;28;20402;-73
2022/01/16 04:06:26;;;;;;;35.30;16.20;;;7.70;99.90;;;;;;5109131;28;20416;-73
2022/01/16 04:08:53;;;;;;;27.93;16.03;;;7.70;99.90;;;;;;5114100;27;20457;-73
2022/01/16 04:11:20;;;;;;;32.15;17.55;;;7.80;99.90;;;;;;5109572;28;20422;-73
2022/01/16 04:13:55;;;;;;;34.25;17.85;;;7.80;99.90;;;;;;5110955;28;20438;-73
2022/01/16 04:16:23;;;;;;;34.47;17.80;;;7.70;99.90;;;;;;5092029;28;20412;-73
2022/01/16 04:18:51;;;;;;;33.70;17.85;;;7.80;99.90;;;;;;5116629;27;20834;-73
2022/01/16 04:21:22;;;;;;;35.83;17.52;;;7.80;99.90;;;;;;5107995;28;20416;-73
2022/01/16 04:23:49;;;;;;;35.38;17.77;;;7.80;99.90;;;;;;5111170;27;20404;-73
2022/01/16 04:26:16;;;;;;;38.17;18.55;;;7.80;99.90;;;;;;5109150;28;20412;-73
2022/01/16 04:28:41;;;;;;;32.58;18.58;;;7.80;99.90;;;;;;5110785;28;20419;-73
2022/01/16 04:31:08;;;;;;;32.92;18.45;;;7.80;99.90;;;;;;5108834;27;20440;-73
2022/01/16 04:33:34;;;;;;;40.70;18.97;;;7.90;99.90;;;;;;5124290;27;20390;-73
2022/01/16 04:36:00;;;;;;;31.73;18.65;;;7.90;99.90;;;;;;5109332;28;20410;-72
2022/01/16 04:38:25;;;;;;;34.20;18.80;;;7.90;99.90;;;;;;5109631;28;20928;-73
2022/01/16 04:43:47;;;;;;;39.83;18.92;;;8.00;99.90;;;;;;5107827;28;20833;-73
2022/01/16 04:46:15;;;;;;;35.83;19.15;;;8.00;99.90;;;;;;5110713;27;20481;-74
2022/01/16 04:48:40;;;;;;;35.13;18.20;;;8.00;99.90;;;;;;5113672;27;20396;-75
2022/01/16 04:51:06;;;;;;;36.03;17.87;;;8.00;99.90;;;;;;5117017;27;20518;-74
2022/01/16 04:53:32;;;;;;;32.67;17.88;;;8.00;99.90;;;;;;5110121;27;20408;-75
2022/01/16 04:55:57;;;;;;;33.87;17.50;;;8.10;99.90;;;;;;5106656;27;20491;-75
2022/01/16 04:58:23;;;;;;;31.70;16.77;;;8.10;99.90;;;;;;5110421;28;20416;-75
2022/01/16 05:00:48;;;;;;;32.20;16.48;;;8.10;99.90;;;;;;5108352;28;20918;-75
2022/01/16 05:03:14;;;;;;;31.13;15.47;;;8.10;99.90;;;;;;5107678;27;20408;-75
2022/01/16 05:05:40;;;;;;;33.35;15.65;;;8.10;99.90;;;;;;5110865;27;20758;-74
2022/01/16 05:08:05;;;;;;;31.10;14.97;;;8.10;99.90;;;;;;5108154;27;20445;-75
2022/01/16 05:10:32;;;;;;;32.58;14.43;;;8.10;99.90;;;;;;5109647;28;20892;-75
2022/01/16 05:13:15;;;;;;;29.58;14.20;;;8.10;99.90;;;;;;5108427;28;20423;-74
2022/01/16 05:18:25;;;;;;;25.58;13.00;;;8.20;99.90;;;;;;5109119;28;20736;-74
2022/01/16 05:20:50;;;;;;;29.60;12.70;;;8.20;99.90;;;;;;5108020;28;20404;-74
2022/01/16 05:23:16;;;;;;;31.08;13.13;;;8.10;99.90;;;;;;5098262;28;20396;-74
2022/01/16 05:25:42;;;;;;;29.97;12.40;;;8.20;99.90;;;;;;5108011;27;20512;-75
2022/01/16 05:28:07;;;;;;;30.05;12.43;;;8.20;99.90;;;;;;5106840;28;20411;-75
2022/01/16 05:30:33;;;;;;;22.67;11.17;;;8.20;99.90;;;;;;5110787;27;20804;-75
2022/01/16 05:32:58;;;;;;;26.00;11.75;;;8.20;99.90;;;;;;5124257;27;20475;-73
2022/01/16 05:35:24;;;;;;;24.37;11.23;;;8.20;99.90;;;;;;5102873;28;20404;-75
2022/01/16 05:37:50;;;;;;;24.57;10.57;;;8.20;99.90;;;;;;5098244;28;20415;-75
2022/01/16 05:40:15;;;;;;;24.83;10.30;;;8.30;99.90;;;;;;5106621;28;21798;-73
2022/01/16 05:42:41;;;;;;;27.53;11.00;;;8.30;99.90;;;;;;5106833;28;20420;-76
2022/01/16 05:45:07;;;;;;;22.00;9.98;;;8.30;99.90;;;;;;5114370;27;20408;-75
2022/01/16 05:47:33;;;;;;;23.77;9.88;;;8.30;99.90;;;;;;5106986;28;20495;-76
2022/01/16 05:49:58;;;;;;;24.43;9.73;;;8.30;99.90;;;;;;5119372;27;20511;-75
2022/01/16 05:52:24;;;;;;;24.75;9.63;;;8.40;99.90;;;;;;5106397;28;20809;-74
2022/01/16 05:54:50;;;;;;;21.57;8.70;;;8.40;99.90;;;;;;5107557;27;21645;-74
2022/01/16 05:57:15;;;;;;;23.65;8.48;;;8.40;99.90;;;;;;5115159;27;20495;-72
2022/01/16 05:59:41;;;;;;;17.43;7.40;;;8.40;99.90;;;;;;5107713;28;20396;-77
2022/01/16 06:02:07;;;;;;;20.25;7.50;;;8.40;99.90;;;;;;5109939;27;20455;-76
2022/01/16 06:04:33;;;;;;;18.47;6.17;;;8.50;99.90;;;;;;5112454;27;20452;-75
2022/01/16 06:06:59;;;;;;;15.23;5.75;;;8.50;99.90;;;;;;5112687;27;20483;-76
2022/01/16 06:09:26;;;;;;;15.80;5.50;;;8.50;99.90;;;;;;5115403;27;20419;-76
2022/01/16 06:11:53;;;;;;;13.57;4.77;;;8.50;99.90;;;;;;5105920;28;20446;-75
2022/01/16 06:14:20;;;;;;;12.57;4.72;;;8.50;99.90;;;;;;5115037;27;20384;-74
2022/01/16 06:16:46;;;;;;;13.50;4.20;;;8.60;99.90;;;;;;5106880;28;20400;-74
2022/01/16 06:19:11;;;;;;;12.73;3.90;;;8.50;99.90;;;;;;5116959;27;20388;-76
2022/01/16 06:21:37;;;;;;;12.07;4.20;;;8.60;99.90;;;;;;5103832;28;20419;-75
2022/01/16 06:24:03;;;;;;;12.82;3.97;;;8.60;99.90;;;;;;5108195;28;20418;-76
2022/01/16 06:26:30;;;;;;;10.68;3.97;;;8.60;99.90;;;;;;5116653;27;20434;-74
2022/01/16 06:28:56;;;;;;;12.80;3.80;;;8.60;99.90;;;;;;5105690;28;20841;-75
2022/01/16 06:31:22;;;;;;;13.43;3.70;;;8.60;99.90;;;;;;5110515;28;20529;-76
2022/01/16 06:33:48;;;;;;;8.15;3.30;;;8.60;99.90;;;;;;5121122;28;20499;-76
2022/01/16 06:36:13;;;;;;;7.37;3.23;;;8.70;99.90;;;;;;5104034;28;20415;-73
2022/01/16 06:38:39;;;;;;;10.30;3.00;;;8.70;99.90;;;;;;5110349;28;20888;-75
2022/01/16 06:41:05;;;;;;;6.87;3.17;;;8.70;99.90;;;;;;5100209;28;20465;-72
2022/01/16 06:43:30;;;;;;;9.18;3.40;;;8.70;99.90;;;;;;5109446;28;20499;-73
2022/01/16 06:45:56;;;;;;;7.17;3.23;;;8.70;99.80;;;;;;5107104;28;20407;-72
2022/01/16 06:48:22;;;;;;;12.63;3.58;;;8.70;99.50;;;;;;5110659;28;20400;-73
2022/01/16 06:50:48;;;;;;;9.65;3.88;;;8.80;99.50;;;;;;5107105;28;20434;-73
2022/01/16 06:53:14;;;;;;;10.47;3.83;;;8.80;99.30;;;;;;5107724;28;20400;-74
2022/01/16 06:55:39;;;;;;;11.27;4.22;;;8.80;99.10;;;;;;5108707;28;20426;-75
2022/01/16 06:58:05;;;;;;;11.70;4.03;;;8.80;99.30;;;;;;5120701;27;20414;-75
2022/01/16 07:00:31;;;;;;;10.98;3.80;;;8.80;99.30;;;;;;5109122;28;20413;-74
2022/01/16 07:02:56;;;;;;;11.93;4.40;;;8.80;99.50;;;;;;5114309;27;20480;-75
2022/01/16 07:05:22;;;;;;;10.40;4.40;;;8.90;99.60;;;;;;5110511;27;20887;-75
2022/01/16 07:07:47;;;;;;;12.30;4.57;;;8.90;99.80;;;;;;5111835;28;20431;-75
2022/01/16 07:10:13;;;;;;;11.73;4.87;;;8.90;99.90;;;;;;5122502;27;20764;-74
2022/01/16 07:12:39;;;;;;;15.60;5.43;;;8.90;99.90;;;;;;5119492;27;20404;-76
2022/01/16 07:15:05;;;;;;;12.40;5.33;;;8.80;99.90;;;;;;5114749;27;20399;-74
2022/01/16 07:17:31;;;;;;;14.57;4.90;;;8.90;99.90;;;;;;5109590;28;20400;-74
2022/01/16 07:19:56;;;;;;;17.02;5.70;;;8.90;99.90;;;;;;5112997;27;20388;-72
2022/01/16 07:22:23;;;;;;;16.80;5.93;;;8.90;99.90;;;;;;5092994;28;20496;-75
2022/01/16 07:24:50;;;;;;;10.93;5.88;;;8.90;99.90;;;;;;5110988;28;20738;-76
2022/01/16 07:27:16;;;;;;;14.90;5.80;;;8.90;99.90;;;;;;5122342;27;20404;-73
2022/01/16 07:29:42;;;;;;;16.83;6.03;;;8.90;99.90;;;;;;5112881;27;20444;-76
2022/01/16 07:32:08;;;;;;;18.33;6.30;;;8.90;99.90;;;;;;5113021;27;20428;-75
2022/01/16 07:34:34;;;;;;;16.33;6.45;;;8.90;99.90;;;;;;5112959;27;20448;-74
2022/01/16 07:37:00;;;;;;;14.80;6.47;;;9.00;99.90;;;;;;5112435;27;21161;-75
2022/01/16 07:39:25;;;;;;;16.07;5.70;;;9.00;99.90;;;;;;5115797;27;20418;-75
2022/01/16 07:41:51;;;;;;;17.17;5.93;;;9.00;99.90;;;;;;5118033;27;20411;-75
2022/01/16 07:44:20;;;;;;;14.20;5.75;;;9.00;99.90;;;;;;5108995;28;20427;-76
2022/01/16 07:46:45;;;;;;;19.05;5.80;;;9.10;99.90;;;;;;5110610;27;20416;-75
2022/01/16 07:49:11;;;;;;;12.43;5.25;;;9.10;99.90;;;;;;5093719;27;20487;-76
2022/01/16 07:51:36;;;;;;;16.30;5.20;;;9.00;99.90;;;;;;5119789;27;20451;-77
2022/01/16 07:54:02;;;;;;;13.93;5.28;;;9.10;99.90;;;;;;5118016;27;20889;-77
2022/01/16 07:56:28;;;;;;;12.93;5.00;;;9.10;99.90;;;;;;5124087;27;20828;-79
2022/01/16 07:58:53;;;;;;;12.13;4.72;;;9.10;99.90;;;;;;5115429;27;20415;-77
2022/01/16 08:01:19;;;;;;;11.47;4.13;;;9.10;99.90;;;;;;5109459;27;20461;-77
2022/01/16 08:03:45;;;;;;;12.43;4.70;;;9.10;99.90;;;;;;5118110;27;20396;-76
2022/01/16 08:06:11;;;;;;;16.00;4.67;;;9.10;99.90;;;;;;5112954;27;20404;-75
2022/01/16 08:08:37;;;;;;;12.23;4.95;;;9.10;99.90;;;;;;5109542;27;20403;-76
2022/01/16 08:11:03;;;;;;;16.02;5.43;;;9.10;99.90;;;;;;5111876;27;20404;-76
2022/01/16 08:13:29;;;;;;;16.48;6.03;;;9.10;99.90;;;;;;5117255;27;20473;-78
2022/01/16 08:15:54;;;;;;;17.37;6.30;;;9.20;99.90;;;;;;5112423;27;20415;-76
2022/01/16 08:18:20;;;;;;;17.65;7.25;;;9.10;99.90;;;;;;5111418;27;20411;-77
2022/01/16 08:20:45;;;;;;;17.88;6.70;;;9.10;99.90;;;;;;5113828;27;20468;-77
2022/01/16 08:23:11;;;;;;;17.90;7.20;;;9.10;99.90;;;;;;5126579;27;20398;-78
2022/01/16 08:25:37;;;;;;;16.83;7.15;;;9.20;99.90;;;;;;5119555;27;20763;-78
2022/01/16 08:28:03;;;;;;;19.23;7.30;;;9.20;99.90;;;;;;5105039;27;21027;-77
2022/01/16 08:30:29;;;;;;;17.33;7.40;;;9.20;99.90;;;;;;5116236;27;20416;-76
2022/01/16 08:32:54;;;;;;;18.52;8.38;;;9.20;99.90;;;;;;5118035;27;20412;-77
2022/01/16 08:35:21;;;;;;;18.98;7.72;;;9.20;99.90;;;;;;5109577;27;21105;-79
2022/01/16 08:37:47;;;;;;;17.27;7.70;;;9.20;99.90;;;;;;5118783;27;20533;-77
2022/01/16 08:40:13;;;;;;;19.67;7.95;;;9.30;99.90;;;;;;5114404;27;20491;-77
2022/01/16 08:42:40;;;;;;;21.38;7.95;;;9.30;99.90;;;;;;5118599;27;20903;-77
2022/01/16 08:45:07;;;;;;;20.05;8.00;;;9.30;99.90;;;;;;5124027;27;20444;-76
2022/01/16 08:47:32;;;;;;;24.00;8.55;;;9.30;99.90;;;;;;5118284;27;20403;-76
2022/01/16 08:49:59;;;;;;;25.97;8.20;;;9.30;99.90;;;;;;5118558;27;20404;-77
2022/01/16 08:52:26;;;;;;;22.40;9.00;;;9.30;99.90;;;;;;5117336;27;20392;-77
2022/01/16 08:54:51;;;;;;;19.42;8.85;;;9.30;99.90;;;;;;5122692;27;20402;-77
2022/01/16 08:57:17;;;;;;;22.70;9.13;;;9.30;99.90;;;;;;5119706;27;20399;-76
2022/01/16 08:59:43;;;;;;;20.10;8.63;;;9.30;99.90;;;;;;5114815;27;20495;-76
2022/01/16 09:02:08;;;;;;;19.10;8.70;;;9.30;99.90;;;;;;5106991;27;20453;-77
2022/01/16 09:04:34;;;;;;;20.15;9.05;;;9.40;99.90;;;;;;5106241;27;20408;-77
2022/01/16 09:07:00;;;;;;;22.73;9.27;;;9.40;99.90;;;;;;5106783;27;20404;-76
2022/01/16 09:09:26;;;;;;;22.37;9.17;;;9.40;99.90;;;;;;5112664;27;20485;-75
2022/01/16 09:11:51;;;;;;;24.40;9.65;;;9.40;99.90;;;;;;5106227;28;20795;-76
2022/01/16 09:14:17;;;;;;;20.15;9.32;;;9.40;99.90;;;;;;5104892;27;20904;-76
2022/01/16 09:16:42;;;;;;;24.53;9.20;;;9.40;99.90;;;;;;5104759;27;20409;-77
2022/01/16 09:19:08;;;;;;;21.45;9.50;;;9.40;99.90;;;;;;5107560;27;20927;-79
2022/01/16 09:21:34;;;;;;;20.80;9.30;;;9.40;99.90;;;;;;5109147;27;20416;-79
2022/01/16 09:24:00;;;;;;;22.90;9.60;;;9.40;99.90;;;;;;5105964;27;20394;-78
2022/01/16 09:26:27;;;;;;;20.50;9.67;;;9.40;99.90;;;;;;5112336;27;20452;-81
2022/01/16 09:28:53;;;;;;;24.08;8.98;;;9.40;99.90;;;;;;5108365;27;20388;-78
2022/01/16 09:31:18;;;;;;;23.33;9.20;;;9.40;99.90;;;;;;5121282;27;20456;-78
2022/01/16 09:33:44;;;;;;;21.33;9.05;;;9.50;99.90;;;;;;5089402;27;20773;-78
2022/01/16 09:36:10;;;;;;;25.17;9.05;;;9.50;99.90;;;;;;5115180;27;20509;-77
2022/01/16 09:38:37;;;;;;;22.52;9.05;;;9.50;99.90;;;;;;5109529;27;20474;-75
2022/01/16 09:41:04;;;;;;;19.43;8.30;;;9.50;99.90;;;;;;5093247;28;20412;-76
2022/01/16 09:43:34;;;;;;;21.70;9.05;;;9.50;99.90;;;;;;5113200;27;20412;-75
2022/01/16 09:46:01;;;;;;;22.70;8.93;;;9.50;99.90;;;;;;5120677;27;20502;-76
2022/01/16 09:48:27;;;;;;;18.30;8.60;;;9.50;99.90;;;;;;5108901;27;20415;-79
2022/01/16 09:50:53;;;;;;;19.85;8.45;;;9.60;99.90;;;;;;5106572;27;20548;-78
2022/01/16 09:53:20;;;;;;;19.07;8.60;;;9.60;99.90;;;;;;5107547;28;20872;-77
2022/01/16 09:55:46;;;;;;;22.30;8.07;;;9.60;99.90;;;;;;5106271;28;20399;-77
2022/01/16 09:58:12;;;;;;;18.53;7.87;;;9.60;99.90;;;;;;5119159;27;20415;-76
2022/01/16 10:00:38;;;;;;;20.90;8.00;;;9.60;99.90;;;;;;5115464;27;20400;-78
2022/01/16 10:03:05;;;;;;;18.25;7.60;;;9.60;99.90;;;;;;5110164;27;20411;-76
2022/01/16 10:05:36;;;;;;;23.77;8.30;;;9.60;99.90;;;;;;5090077;28;21005;-77
2022/01/16 10:08:07;;;;;;;19.53;8.00;;;9.60;99.90;;;;;;5114574;27;20400;-77
2022/01/16 10:10:39;;;;;;;20.13;8.10;;;9.60;99.90;;;;;;5105525;28;20476;-77
2022/01/16 10:13:54;;;;;;;19.80;7.78;;;9.70;99.90;;;;;;5111588;27;20440;-77
2022/01/16 10:16:29;;;;;;;21.70;7.93;;;9.70;99.90;;;;;;5073788;27;20416;-77
2022/01/16 10:18:55;;;;;;;20.08;7.20;;;9.70;99.90;;;;;;5118740;27;20394;-78
2022/01/16 10:21:36;;;;;;;21.50;7.53;;;9.70;99.90;;;;;;5109512;27;20453;-78
2022/01/16 10:24:17;;;;;;;24.17;8.00;;;9.70;99.90;;;;;;5119554;27;20497;-77
2022/01/16 10:26:43;;;;;;;20.20;7.10;;;9.70;99.90;;;;;;5114641;27;20416;-77
2022/01/16 10:29:15;;;;;;;16.45;6.90;;;9.70;99.90;;;;;;5096299;28;20411;-74
2022/01/16 10:31:40;;;;;;;20.67;7.85;;;9.70;99.90;;;;;;5103272;28;20408;-74
2022/01/16 10:34:27;;;;;;;19.15;6.70;;;9.70;99.90;;;;;;5107815;28;20404;-74
2022/01/16 10:36:52;;;;;;;19.63;6.40;;;9.70;99.90;;;;;;5104110;28;20535;-75
2022/01/16 10:39:18;;;;;;;21.23;6.90;;;9.70;99.90;;;;;;5113034;27;21159;-74
2022/01/16 10:41:44;;;;;;;16.65;6.72;;;9.70;99.90;;;;;;5105053;28;20405;-75
2022/01/16 10:44:30;;;;;;;16.40;6.23;;;9.70;99.90;;;;;;5100326;28;20420;-75
2022/01/16 10:46:56;;;;;;;18.93;7.00;;;9.80;99.90;;;;;;5104897;28;21356;-75
2022/01/16 10:49:22;;;;;;;20.13;7.10;;;9.80;99.90;;;;;;5108973;28;20494;-75
2022/01/16 10:52:11;;;;;;;21.05;7.10;;;9.80;99.90;;;;;;5105172;28;20430;-75
2022/01/16 10:54:39;;;;;;;18.50;6.50;;;9.80;99.90;;;;;;5105924;28;20892;-72
2022/01/16 10:57:25;;;;;;;18.13;6.88;;;9.80;99.90;;;;;;5108426;28;20427;-74
2022/01/16 11:00:18;;;;;;;16.60;5.73;;;9.90;99.90;;;;;;5107532;28;20424;-75
2022/01/16 11:02:49;;;;;;;15.38;6.05;;;9.90;99.90;;;;;;5084276;28;20420;-75
2022/01/16 11:05:20;;;;;;;18.67;6.25;;;10.00;99.90;;;;;;5107920;28;20382;-74
2022/01/16 11:07:54;;;;;;;14.07;5.72;;;10.00;99.90;;;;;;5105939;28;20439;-76
2022/01/16 11:10:37;;;;;;;16.80;6.40;;;10.00;99.90;;;;;;5110436;28;20416;-75
2022/01/16 11:13:20;;;;;;;14.10;6.00;;;10.00;99.90;;;;;;5106269;28;20406;-75
2022/01/16 11:15:50;;;;;;;15.73;6.25;;;10.00;99.90;;;;;;5111240;28;20401;-74
2022/01/16 11:18:17;;;;;;;17.88;6.68;;;10.00;99.90;;;;;;5106601;28;20412;-75
2022/01/16 11:20:51;;;;;;;23.13;7.38;;;10.00;99.90;;;;;;5106616;28;20764;-75
2022/01/16 11:23:29;;;;;;;16.75;6.13;;;10.00;99.90;;;;;;5104963;28;20416;-73
2022/01/16 11:26:01;;;;;;;15.52;6.50;;;10.10;99.90;;;;;;5102526;28;20521;-74
2022/01/16 11:28:27;;;;;;;14.65;6.55;;;10.10;99.90;;;;;;5105750;28;20775;-75
2022/01/16 11:30:57;;;;;;;16.88;6.40;;;10.10;99.90;;;;;;5105619;28;21170;-74
2022/01/16 11:33:25;;;;;;;15.50;6.25;;;10.20;99.90;;;;;;5111685;28;21596;-75
2022/01/16 11:35:55;;;;;;;16.65;6.40;;;10.20;99.90;;;;;;5106847;28;20486;-75
2022/01/16 11:38:23;;;;;;;17.42;6.28;;;10.30;99.90;;;;;;5106574;28;20736;-75
2022/01/16 11:40:50;;;;;;;14.57;6.43;;;10.30;99.90;;;;;;5106369;28;20408;-75
2022/01/16 11:43:15;;;;;;;17.77;6.53;;;10.30;99.90;;;;;;5111955;27;20473;-73
2022/01/16 11:46:05;;;;;;;17.83;6.40;;;10.40;99.90;;;;;;5114900;27;20429;-73
2022/01/16 11:48:35;;;;;;;15.55;6.22;;;10.40;99.90;;;;;;5108048;28;20416;-73
2022/01/16 11:51:06;;;;;;;14.98;6.65;;;10.40;99.90;;;;;;5109426;28;20432;-74
2022/01/16 11:53:57;;;;;;;17.50;6.72;;;10.40;99.90;;;;;;5110065;28;20783;-71
2022/01/16 11:56:38;;;;;;;24.88;9.05;;;10.40;99.90;;;;;;5113514;27;20408;-74
2022/01/16 11:59:13;;;;;;;39.67;14.32;;;10.40;99.90;;;;;;5109909;27;20422;-73
2022/01/16 12:02:00;;;;;;;48.22;17.40;;;10.40;99.90;;;;;;5105252;28;20424;-74
2022/01/16 12:04:29;;;;;;;50.50;19.92;;;10.40;99.90;;;;;;5109641;28;20400;-75
2022/01/16 12:06:54;;;;;;;45.80;19.03;;;10.40;99.90;;;;;;5109675;28;20404;-75
2022/01/16 12:12:02;;;;;;;41.33;16.37;;;10.40;99.90;;;;;;5112321;27;20398;-74
2022/01/16 12:15:05;;;;;;;40.65;15.50;;;10.40;99.90;;;;;;5093186;28;20491;-76
2022/01/16 12:17:44;;;;;;;45.30;18.50;;;10.30;99.90;;;;;;5114477;27;20412;-76
2022/01/16 12:20:13;;;;;;;41.60;17.30;;;10.30;99.90;;;;;;5108080;28;20416;-75
2022/01/16 12:22:46;;;;;;;46.22;17.45;;;10.30;99.90;;;;;;5109766;28;20446;-75
2022/01/16 12:25:21;;;;;;;47.38;16.27;;;10.40;99.90;;;;;;5098549;28;20923;-75
2022/01/16 12:27:55;;;;;;;40.50;15.07;;;10.30;99.90;;;;;;5118114;27;20751;-75
2022/01/16 12:30:32;;;;;;;37.78;13.75;;;10.40;99.90;;;;;;5107611;28;20441;-75
2022/01/16 12:33:03;;;;;;;33.60;12.00;;;10.40;99.90;;;;;;5101869;27;20526;-76
2022/01/16 12:35:41;;;;;;;30.13;10.57;;;10.40;99.90;;;;;;5118043;27;20416;-74
2022/01/16 12:38:20;;;;;;;28.00;9.88;;;10.30;99.90;;;;;;5115824;27;20493;-76
2022/01/16 12:41:00;;;;;;;19.48;7.57;;;10.30;99.90;;;;;;5104424;27;20411;-75
2022/01/16 12:43:30;;;;;;;27.00;7.55;;;10.30;99.90;;;;;;5111801;27;20416;-75
2022/01/16 12:45:57;;;;;;;18.83;6.00;;;10.40;99.90;;;;;;5108701;28;20449;-73
2022/01/16 12:48:22;;;;;;;17.88;6.00;;;10.40;99.90;;;;;;5111534;27;20807;-73
2022/01/16 12:50:49;;;;;;;21.40;6.30;;;10.40;99.90;;;;;;5109201;28;20502;-73
2022/01/16 12:53:42;;;;;;;20.98;6.32;;;10.40;99.90;;;;;;5110674;28;20463;-75
2022/01/16 12:56:29;;;;;;;18.33;5.97;;;10.40;99.90;;;;;;5107703;28;20408;-73
2022/01/16 12:59:09;;;;;;;18.47;6.30;;;10.40;99.90;;;;;;5111833;27;21950;-73
2022/01/16 13:01:35;;;;;;;19.25;6.70;;;10.50;99.90;;;;;;5105077;28;20427;-73
2022/01/16 13:04:01;;;;;;;22.25;7.13;;;10.40;99.90;;;;;;5124877;27;20392;-73
2022/01/16 13:06:29;;;;;;;24.50;7.78;;;10.40;99.90;;;;;;5119044;27;20904;-72
2022/01/16 13:08:57;;;;;;;26.70;8.70;;;10.50;99.90;;;;;;5110576;27;20776;-72
2022/01/16 13:11:25;;;;;;;24.95;8.82;;;10.40;99.90;;;;;;5102661;28;20427;-73
2022/01/16 13:13:51;;;;;;;25.10;9.27;;;10.50;99.90;;;;;;5109098;27;20400;-72
2022/01/16 13:16:32;;;;;;;25.20;10.02;;;10.40;99.90;;;;;;5109051;27;20404;-71
2022/01/16 13:18:57;;;;;;;26.92;10.43;;;10.40;99.90;;;;;;5114940;27;20412;-74
2022/01/16 13:21:32;;;;;;;30.45;10.38;;;10.50;99.90;;;;;;5109950;28;20425;-74
2022/01/16 13:23:57;;;;;;;30.90;11.25;;;10.40;99.90;;;;;;5116035;27;20428;-75
2022/01/16 13:26:27;;;;;;;28.23;10.90;;;10.40;99.90;;;;;;5108423;28;21002;-73
2022/01/16 13:29:06;;;;;;;26.02;10.35;;;10.40;99.90;;;;;;5109153;28;20407;-75
2022/01/16 13:31:36;;;;;;;27.38;10.55;;;10.50;99.90;;;;;;5112690;27;20419;-75